createdAt,value
2022-10-01T00:00:00.705Z,100933.06
2022-10-01T00:02:28.801Z,100937.50
2022-10-01T00:04:57.085Z,100936.09
2022-10-01T00:07:25.180Z,100948.75
2022-10-01T00:09:53.171Z,100952.09
2022-10-01T00:12:21.166Z,100953.75
2022-10-01T00:14:49.171Z,100953.63
2022-10-01T00:17:18.854Z,100946.13
2022-10-01T00:19:46.853Z,100932.56
2022-10-01T00:22:14.943Z,100933.03
2022-10-01T00:24:44.204Z,100943.78
2022-10-01T00:27:12.637Z,100952.72
2022-10-01T00:29:40.659Z,100943.41
2022-10-01T00:32:10.071Z,100944.25
2022-10-01T00:34:39.457Z,100949.06
2022-10-01T00:37:09.669Z,100945.84
2022-10-01T00:39:37.860Z,100933.91
2022-10-01T00:42:18.195Z,100931.41
2022-10-01T00:44:46.830Z,100937.13
2022-10-01T00:47:24.449Z,100928.31
2022-10-01T00:49:59.522Z,100919.94
2022-10-01T00:52:32.494Z,100911.53
2022-10-01T00:55:06.131Z,100915.84
2022-10-01T00:57:35.804Z,100916.19
2022-10-01T01:00:08.413Z,100894.78
2022-10-01T01:02:36.546Z,100898.13
2022-10-01T01:05:08.937Z,100901.94
2022-10-01T01:07:39.433Z,100917.56
2022-10-01T01:10:09.233Z,100916.00
2022-10-01T01:12:48.693Z,100919.22
2022-10-01T01:15:22.909Z,100924.09
2022-10-01T01:17:57.339Z,100921.25
2022-10-01T01:20:49.891Z,100857.63
2022-10-01T01:23:48.442Z,100915.28
2022-10-01T01:26:29.558Z,100906.13
2022-10-01T01:29:04.432Z,100910.03
2022-10-01T01:31:37.455Z,100910.97
2022-10-01T01:34:12.540Z,100906.56
2022-10-01T01:36:45.806Z,100906.94
2022-10-01T01:39:17.352Z,100909.19
2022-10-01T01:41:51.189Z,100906.13
2022-10-01T01:44:25.815Z,100906.81
2022-10-01T01:46:56.997Z,100904.31
2022-10-01T01:49:25.584Z,100900.75
2022-10-01T01:51:58.230Z,100901.31
2022-10-01T01:54:29.597Z,100894.69
2022-10-01T01:56:59.113Z,100907.63
2022-10-01T01:59:29.267Z,100905.41
2022-10-01T02:01:58.958Z,100917.06
2022-10-01T02:04:30.765Z,100917.78
2022-10-01T02:07:16.691Z,100919.13
2022-10-01T02:09:53.356Z,100925.75
2022-10-01T02:12:35.781Z,100927.31
2022-10-01T02:15:11.902Z,100927.53
2022-10-01T02:17:50.638Z,100927.66
2022-10-01T02:20:24.465Z,100917.44
2022-10-01T02:22:56.391Z,100924.94
2022-10-01T02:25:27.926Z,100921.47
2022-10-01T02:28:01.629Z,100918.84
2022-10-01T02:30:35.635Z,100907.91
2022-10-01T02:33:05.882Z,100904.56
2022-10-01T02:35:36.464Z,100896.94
2022-10-01T02:38:07.498Z,100904.91
2022-10-01T02:40:39.070Z,100903.25
2022-10-01T02:43:11.803Z,100909.81
2022-10-01T02:45:44.927Z,100915.78
2022-10-01T02:48:18.146Z,100914.09
2022-10-01T02:50:51.179Z,100891.81
2022-10-01T02:53:23.369Z,100907.91
2022-10-01T02:55:53.897Z,100897.88
2022-10-01T02:58:21.540Z,100901.72
2022-10-01T03:00:50.934Z,100910.88
2022-10-01T03:03:18.865Z,100914.44
2022-10-01T03:05:46.799Z,100914.69
2022-10-01T03:08:14.738Z,100907.91
2022-10-01T03:10:46.575Z,100905.03
2022-10-01T03:13:15.109Z,100909.75
2022-10-01T03:15:43.178Z,100911.63
2022-10-01T03:18:12.568Z,100909.78
2022-10-01T03:20:40.509Z,100906.38
2022-10-01T03:23:08.442Z,100900.94
2022-10-01T03:25:36.483Z,100897.38
2022-10-01T03:28:04.536Z,100903.09
2022-10-01T03:30:33.308Z,100907.22
2022-10-01T03:33:01.286Z,100909.34
2022-10-01T03:35:30.594Z,100907.56
2022-10-01T03:37:58.536Z,100909.22
2022-10-01T03:40:26.537Z,100904.81
2022-10-01T03:42:54.490Z,100905.88
2022-10-01T03:45:22.453Z,100897.03
2022-10-01T03:47:53.458Z,100906.59
2022-10-01T03:50:22.046Z,100904.22
2022-10-01T03:52:51.833Z,100906.97
2022-10-01T03:55:20.089Z,100913.03
2022-10-01T03:57:48.464Z,100916.19
2022-10-01T04:00:18.384Z,100918.31
2022-10-01T04:02:46.465Z,100912.94
2022-10-01T04:05:14.699Z,100910.75
2022-10-01T04:07:43.404Z,100915.91
2022-10-01T04:10:12.892Z,100916.75
2022-10-01T04:12:40.809Z,100924.47
2022-10-01T04:15:09.714Z,100912.34
2022-10-01T04:17:38.729Z,100924.19
2022-10-01T04:20:09.697Z,100927.72
2022-10-01T04:22:40.879Z,100936.69
2022-10-01T04:25:11.014Z,100926.25
2022-10-01T04:27:40.430Z,100934.31
2022-10-01T04:30:10.700Z,100928.97
2022-10-01T04:32:38.839Z,100928.22
2022-10-01T04:35:11.689Z,100934.91
2022-10-01T04:37:39.652Z,100935.75
2022-10-01T04:40:09.399Z,100938.00
2022-10-01T04:42:42.025Z,100929.22
2022-10-01T04:45:11.541Z,100919.75
2022-10-01T04:47:39.450Z,100929.31
2022-10-01T04:50:08.101Z,100934.38
2022-10-01T04:52:36.235Z,100924.28
2022-10-01T04:55:04.346Z,100922.19
2022-10-01T04:57:32.251Z,100927.81
2022-10-01T05:00:02.099Z,100927.34
2022-10-01T05:02:30.398Z,100915.63
2022-10-01T05:04:58.360Z,100875.97
2022-10-01T05:07:26.287Z,100924.47
2022-10-01T05:09:54.220Z,100929.41
2022-10-01T05:12:24.693Z,100937.88
2022-10-01T05:14:53.316Z,100943.22
2022-10-01T05:17:24.110Z,100936.25
2022-10-01T05:19:52.186Z,100944.50
2022-10-01T05:22:20.465Z,100939.13
2022-10-01T05:24:48.621Z,100942.03
2022-10-01T05:27:16.742Z,100937.25
2022-10-01T05:29:44.712Z,100942.78
2022-10-01T05:32:13.231Z,100946.22
2022-10-01T05:34:42.630Z,100941.44
2022-10-01T05:37:11.005Z,100945.75
2022-10-01T05:39:39.075Z,100958.03
2022-10-01T05:42:07.049Z,100947.81
2022-10-01T05:44:38.018Z,100951.00
2022-10-01T05:47:06.937Z,100948.09
2022-10-01T05:49:35.320Z,100952.19
2022-10-01T05:52:04.721Z,100944.97
2022-10-01T05:54:32.667Z,100946.06
2022-10-01T05:57:00.577Z,100946.56
2022-10-01T05:59:31.663Z,100939.00
2022-10-01T06:01:59.995Z,100960.25
2022-10-01T06:04:28.301Z,100950.03
2022-10-01T06:06:56.271Z,100963.66
2022-10-01T06:09:25.798Z,100954.53
2022-10-01T06:11:54.015Z,100960.00
2022-10-01T06:14:22.222Z,100960.41
2022-10-01T06:16:54.366Z,100951.00
2022-10-01T06:19:22.355Z,100951.94
2022-10-01T06:21:50.275Z,100965.53
2022-10-01T06:24:18.219Z,100966.31
2022-10-01T06:26:48.557Z,100963.03
2022-10-01T06:29:16.474Z,100954.66
2022-10-01T06:31:44.451Z,100948.34
2022-10-01T06:34:12.421Z,100954.66
2022-10-01T06:36:40.335Z,100959.00
2022-10-01T06:39:10.985Z,100953.00
2022-10-01T06:41:38.882Z,100940.19
2022-10-01T06:44:08.254Z,100927.16
2022-10-01T06:46:36.314Z,100933.50
2022-10-01T06:49:04.222Z,100939.50
2022-10-01T06:51:49.454Z,100945.81
2022-10-01T06:54:18.413Z,100939.53
2022-10-01T06:56:46.514Z,100931.91
2022-10-01T06:59:15.812Z,100921.81
2022-10-01T07:01:43.754Z,100917.31
2022-10-01T07:04:13.156Z,100918.63
2022-10-01T07:06:41.291Z,100919.75
2022-10-01T07:09:09.219Z,100920.56
2022-10-01T07:11:39.278Z,100917.00
2022-10-01T07:14:07.189Z,100922.75
2022-10-01T07:16:39.321Z,100925.00
2022-10-01T07:19:07.290Z,100930.16
2022-10-01T07:21:35.662Z,100930.97
2022-10-01T07:24:03.766Z,100933.78
2022-10-01T07:26:31.710Z,100921.34
2022-10-01T07:28:59.685Z,100925.03
2022-10-01T07:31:27.645Z,100917.69
2022-10-01T07:33:59.156Z,100905.69
2022-10-01T07:36:27.200Z,100899.31
2022-10-01T07:38:55.941Z,100892.69
2022-10-01T07:41:23.937Z,100907.94
2022-10-01T07:43:51.854Z,100910.06
2022-10-01T07:46:19.855Z,100908.59
2022-10-01T07:48:49.641Z,100913.81
2022-10-01T07:51:18.952Z,100913.72
2022-10-01T07:53:46.893Z,100910.81
2022-10-01T07:56:15.182Z,100919.88
2022-10-01T07:58:43.486Z,100925.34
2022-10-01T08:01:11.487Z,100910.69
2022-10-01T08:03:39.457Z,100905.63
2022-10-01T08:06:07.503Z,100909.56
2022-10-01T08:08:36.784Z,100904.53
2022-10-01T08:11:04.865Z,100878.72
2022-10-01T08:13:32.794Z,100881.22
2022-10-01T08:16:03.360Z,100871.97
2022-10-01T08:18:31.306Z,100879.72
2022-10-01T08:21:00.861Z,100875.84
2022-10-01T08:23:29.322Z,100871.66
2022-10-01T08:26:02.559Z,100865.03
2022-10-01T08:28:30.497Z,100862.97
2022-10-01T08:30:58.485Z,100860.03
2022-10-01T08:33:26.398Z,100850.16
2022-10-01T08:35:54.293Z,100851.88
2022-10-01T08:38:31.340Z,100848.31
2022-10-01T08:41:08.310Z,100851.41
2022-10-01T08:43:39.938Z,100847.97
2022-10-01T08:46:14.167Z,100833.97
2022-10-01T08:48:56.913Z,100834.41
2022-10-01T08:51:28.742Z,100832.31
2022-10-01T08:54:00.600Z,100833.09
2022-10-01T08:56:34.593Z,100825.03
2022-10-01T08:59:11.382Z,100818.81
2022-10-01T09:01:39.525Z,100817.38
2022-10-01T09:04:08.018Z,100819.41
2022-10-01T09:06:37.814Z,100811.72
2022-10-01T09:09:27.142Z,100813.31
2022-10-01T09:12:18.697Z,100818.09
2022-10-01T09:15:16.866Z,100807.28
2022-10-01T09:18:03.416Z,100808.13
2022-10-01T09:20:36.428Z,100812.66
2022-10-01T09:23:18.629Z,100812.72
2022-10-01T09:25:51.411Z,100817.00
2022-10-01T09:28:23.679Z,100823.72
2022-10-01T09:30:56.931Z,100821.13
2022-10-01T09:33:30.371Z,100826.41
2022-10-01T09:36:07.165Z,100827.50
2022-10-01T09:38:39.787Z,100815.34
2022-10-01T09:41:10.586Z,100824.56
2022-10-01T09:43:41.854Z,100811.47
2022-10-01T09:46:14.268Z,100799.97
2022-10-01T09:48:48.927Z,100804.56
2022-10-01T09:51:22.291Z,100801.94
2022-10-01T09:54:02.326Z,100809.13
2022-10-01T09:56:35.934Z,100806.25
2022-10-01T09:59:09.391Z,100796.31
2022-10-01T10:01:44.575Z,100791.75
2022-10-01T10:04:16.673Z,100782.31
2022-10-01T10:06:48.722Z,100782.09
2022-10-01T10:09:19.917Z,100773.88
2022-10-01T10:11:47.845Z,100771.22
2022-10-01T10:14:29.971Z,100767.38
2022-10-01T10:16:59.209Z,100772.06
2022-10-01T10:19:29.343Z,100778.28
2022-10-01T10:22:00.761Z,100780.94
2022-10-01T10:24:33.667Z,100779.69
2022-10-01T10:27:04.752Z,100786.69
2022-10-01T10:29:36.522Z,100781.59
2022-10-01T10:32:08.702Z,100771.91
2022-10-01T10:34:39.463Z,100774.38
2022-10-01T10:37:14.712Z,100765.53
2022-10-01T10:39:46.791Z,100766.56
2022-10-01T10:42:16.294Z,100761.19
2022-10-01T10:44:49.399Z,100766.56
2022-10-01T10:47:20.192Z,100761.25
2022-10-01T10:49:49.972Z,100757.50
2022-10-01T10:52:21.825Z,100761.03
2022-10-01T10:54:51.242Z,100759.38
2022-10-01T10:57:22.390Z,100753.63
2022-10-01T10:59:59.555Z,100761.00
2022-10-01T11:02:30.868Z,100756.03
2022-10-01T11:05:01.251Z,100752.72
2022-10-01T11:07:30.265Z,100754.16
2022-10-01T11:10:28.512Z,100741.44
2022-10-01T11:13:20.087Z,100742.25
2022-10-01T11:16:11.081Z,100754.44
2022-10-01T11:18:52.784Z,100753.41
2022-10-01T11:21:36.563Z,100752.59
2022-10-01T11:24:14.765Z,100745.81
2022-10-01T11:26:53.519Z,100746.22
2022-10-01T11:29:34.628Z,100737.63
2022-10-01T11:32:11.793Z,100740.16
2022-10-01T11:35:07.082Z,100728.81
2022-10-01T11:37:59.956Z,100724.53
2022-10-01T11:40:34.010Z,100735.66
2022-10-01T11:43:09.691Z,100729.47
2022-10-01T11:45:43.517Z,100719.59
2022-10-01T11:48:17.778Z,100715.47
2022-10-01T11:50:49.379Z,100710.56
2022-10-01T11:53:23.758Z,100707.06
2022-10-01T11:56:15.033Z,100706.84
2022-10-01T11:58:54.799Z,100716.31
2022-10-01T12:01:39.132Z,100704.38
2022-10-01T12:04:17.734Z,100703.97
2022-10-01T12:06:55.445Z,100706.25
2022-10-01T12:09:28.878Z,100695.97
2022-10-01T12:12:01.831Z,100682.59
2022-10-01T12:14:33.930Z,100690.44
2022-10-01T12:17:12.206Z,100687.75
2022-10-01T12:19:46.858Z,100664.13
2022-10-01T12:22:24.299Z,100663.69
2022-10-01T12:24:53.696Z,100660.41
2022-10-01T12:27:42.327Z,100673.13
2022-10-01T12:30:13.590Z,100652.97
2022-10-01T12:32:57.958Z,100647.22
2022-10-01T12:35:42.706Z,100646.41
2022-10-01T12:38:23.092Z,100643.53
2022-10-01T12:40:57.926Z,100651.38
2022-10-01T12:43:51.334Z,100639.88
2022-10-01T12:46:32.279Z,100646.44
2022-10-01T12:49:09.763Z,100643.97
2022-10-01T12:51:45.950Z,100634.53
2022-10-01T12:54:35.597Z,100632.66
2022-10-01T12:57:13.489Z,100640.09
2022-10-01T12:59:52.861Z,100638.25
2022-10-01T13:02:53.190Z,100635.78
2022-10-01T13:05:31.453Z,100625.50
2022-10-01T13:08:21.511Z,100620.94
2022-10-01T13:11:00.514Z,100605.78
2022-10-01T13:13:33.064Z,100613.59
2022-10-01T13:16:08.097Z,100605.34
2022-10-01T13:18:55.589Z,100603.09
2022-10-01T13:21:32.906Z,100600.00
2022-10-01T13:24:09.895Z,100593.03
2022-10-01T13:26:47.051Z,100581.13
2022-10-01T13:29:29.971Z,100586.81
2022-10-01T13:31:59.355Z,100580.84
2022-10-01T13:34:36.776Z,100582.63
2022-10-01T13:37:15.323Z,100570.28
2022-10-01T13:39:45.189Z,100565.81
2022-10-01T13:42:26.206Z,100554.44
2022-10-01T13:44:56.639Z,100539.50
2022-10-01T13:47:25.979Z,100544.22
2022-10-01T13:50:00.534Z,100540.34
2022-10-01T13:52:28.826Z,100528.84
2022-10-01T13:54:59.858Z,100522.28
2022-10-01T13:57:31.737Z,100527.59
2022-10-01T14:00:01.283Z,100531.13
2022-10-01T14:02:34.168Z,100527.78
2022-10-01T14:05:30.379Z,100527.13
2022-10-01T14:08:11.931Z,100531.84
2022-10-01T14:11:00.574Z,100526.16
2022-10-01T14:13:48.272Z,100537.06
2022-10-01T14:16:17.415Z,100548.50
2022-10-01T14:18:49.883Z,100552.53
2022-10-01T14:21:32.257Z,100555.16
2022-10-01T14:24:07.621Z,100556.13
2022-10-01T14:26:44.862Z,100535.78
2022-10-01T14:29:20.490Z,100531.69
2022-10-01T14:31:57.938Z,100528.94
2022-10-01T14:34:39.102Z,100519.44
2022-10-01T14:37:11.656Z,100519.81
2022-10-01T14:39:42.911Z,100505.25
2022-10-01T14:42:17.423Z,100492.06
2022-10-01T14:44:47.111Z,100470.13
2022-10-01T14:47:20.299Z,100461.22
2022-10-01T14:49:49.338Z,100428.47
2022-10-01T14:52:22.063Z,100391.78
2022-10-01T14:54:53.690Z,100387.19
2022-10-01T14:57:30.410Z,100385.44
2022-10-01T15:00:00.648Z,100396.53
2022-10-01T15:02:29.614Z,100428.19
2022-10-01T15:04:58.631Z,100425.09
2022-10-01T15:07:29.450Z,100413.47
2022-10-01T15:10:07.026Z,100407.50
2022-10-01T15:12:40.950Z,100425.34
2022-10-01T15:15:18.894Z,100431.22
2022-10-01T15:17:47.786Z,100436.03
2022-10-01T15:20:16.368Z,100429.09
2022-10-01T15:22:46.354Z,100434.19
2022-10-01T15:25:21.867Z,100438.09
2022-10-01T15:27:54.153Z,100444.91
2022-10-01T15:30:22.438Z,100436.88
2022-10-01T15:32:51.506Z,100434.97
2022-10-01T15:35:23.010Z,100456.41
2022-10-01T15:37:53.213Z,100458.13
2022-10-01T15:40:29.180Z,100424.63
2022-10-01T15:43:21.921Z,100415.72
2022-10-01T15:46:11.989Z,100396.78
2022-10-01T15:48:40.114Z,100367.59
2022-10-01T15:51:16.640Z,100377.56
2022-10-01T15:53:45.502Z,100375.44
2022-10-01T15:56:16.738Z,100396.16
2022-10-01T15:58:51.842Z,100402.63
2022-10-01T16:01:24.429Z,100427.91
2022-10-01T16:03:56.103Z,100435.97
2022-10-01T16:06:27.164Z,100437.59
2022-10-01T16:09:06.506Z,100401.00
2022-10-01T16:11:52.164Z,100363.88
2022-10-01T16:14:33.089Z,100381.72
2022-10-01T16:17:31.859Z,100399.31
2022-10-01T16:20:01.940Z,100398.22
2022-10-01T16:22:32.914Z,100391.53
2022-10-01T16:25:02.283Z,100379.38
2022-10-01T16:27:35.306Z,100378.28
2022-10-01T16:30:13.112Z,100381.00
2022-10-01T16:32:41.066Z,100383.13
2022-10-01T16:35:21.922Z,100395.66
2022-10-01T16:37:51.875Z,100403.66
2022-10-01T16:40:21.697Z,100396.72
2022-10-01T16:42:50.643Z,100379.53
2022-10-01T16:45:24.327Z,100377.53
2022-10-01T16:47:53.432Z,100362.81
2022-10-01T16:50:23.007Z,100340.47
2022-10-01T16:52:53.913Z,100301.72
2022-10-01T16:55:24.772Z,100271.19
2022-10-01T16:57:53.834Z,100248.25
2022-10-01T17:00:25.228Z,100248.00
2022-10-01T17:02:53.996Z,100239.22
2022-10-01T17:05:25.338Z,100243.31
2022-10-01T17:07:53.800Z,100237.22
2022-10-01T17:10:23.645Z,100216.91
2022-10-01T17:12:51.798Z,100204.34
2022-10-01T17:15:23.313Z,100201.94
2022-10-01T17:17:52.642Z,100206.81
2022-10-01T17:20:21.625Z,100215.00
2022-10-01T17:22:50.154Z,100231.25
2022-10-01T17:25:20.313Z,100238.91
2022-10-01T17:27:48.550Z,100246.09
2022-10-01T17:30:16.906Z,100248.44
2022-10-01T17:32:45.057Z,100256.13
2022-10-01T17:35:15.838Z,100251.34
2022-10-01T17:37:44.293Z,100259.63
2022-10-01T17:40:12.417Z,100268.03
2022-10-01T17:42:40.966Z,100267.16
2022-10-01T17:45:11.426Z,100245.31
2022-10-01T17:47:44.276Z,100241.41
2022-10-01T17:50:12.522Z,100233.97
2022-10-01T17:52:42.532Z,100232.56
2022-10-01T17:55:12.286Z,100230.13
2022-10-01T17:57:40.453Z,100231.63
2022-10-01T18:00:09.584Z,100225.66
2022-10-01T18:02:42.021Z,100222.25
2022-10-01T18:05:12.600Z,100222.41
2022-10-01T18:07:42.571Z,100208.06
2022-10-01T18:10:13.113Z,100191.91
2022-10-01T18:12:41.114Z,100184.03
2022-10-01T18:15:10.190Z,100184.25
2022-10-01T18:17:43.395Z,100183.94
2022-10-01T18:20:19.385Z,100193.69
2022-10-01T18:22:48.704Z,100191.09
2022-10-01T18:25:19.308Z,100185.69
2022-10-01T18:27:50.155Z,100179.84
2022-10-01T18:30:20.340Z,100176.03
2022-10-01T18:32:56.932Z,100187.13
2022-10-01T18:35:31.063Z,100171.25
2022-10-01T18:38:06.925Z,100170.59
2022-10-01T18:40:41.250Z,100174.50
2022-10-01T18:43:14.526Z,100174.50
2022-10-01T18:45:57.889Z,100161.66
2022-10-01T18:48:59.522Z,100148.44
2022-10-01T18:51:41.084Z,100136.16
2022-10-01T18:54:25.967Z,100129.88
2022-10-01T18:57:03.534Z,100132.81
2022-10-01T18:59:47.316Z,100132.94
2022-10-01T19:02:30.776Z,100142.50
2022-10-01T19:05:35.401Z,100133.25
2022-10-01T19:08:15.148Z,100121.03
2022-10-01T19:10:51.528Z,100129.84
2022-10-01T19:13:26.098Z,100138.31
2022-10-01T19:16:07.072Z,100134.03
2022-10-01T19:18:55.106Z,100144.13
2022-10-01T19:21:30.716Z,100146.44
2022-10-01T19:24:36.444Z,100142.69
2022-10-01T19:27:20.198Z,100149.94
2022-10-01T19:29:59.694Z,100132.19
2022-10-01T19:32:35.646Z,100125.94
2022-10-01T19:35:13.245Z,100122.00
2022-10-01T19:37:47.078Z,100114.75
2022-10-01T19:40:22.521Z,100113.78
2022-10-01T19:42:57.278Z,100120.38
2022-10-01T19:45:30.238Z,100113.63
2022-10-01T19:48:09.965Z,100106.38
2022-10-01T19:50:41.932Z,100113.16
2022-10-01T19:53:19.758Z,100114.97
2022-10-01T19:55:49.530Z,100123.41
2022-10-01T19:58:20.729Z,100113.00
2022-10-01T20:00:53.519Z,100105.72
2022-10-01T20:03:31.161Z,100112.84
2022-10-01T20:06:04.738Z,100117.44
2022-10-01T20:08:38.962Z,100113.63
2022-10-01T20:11:14.724Z,100104.09
2022-10-01T20:14:04.902Z,100096.00
2022-10-01T20:16:40.898Z,100114.47
2022-10-01T20:19:20.351Z,100120.59
2022-10-01T20:22:00.959Z,100110.69
2022-10-01T20:24:42.642Z,100113.16
2022-10-01T20:27:20.058Z,100118.44
2022-10-01T20:29:55.274Z,100116.78
2022-10-01T20:32:28.392Z,100108.88
2022-10-01T20:35:10.962Z,100096.00
2022-10-01T20:38:00.156Z,100109.03
2022-10-01T20:40:33.025Z,100104.59
2022-10-01T20:43:07.207Z,100103.09
2022-10-01T20:45:36.825Z,100092.22
2022-10-01T20:48:11.494Z,100101.13
2022-10-01T20:50:44.900Z,100096.00
2022-10-01T20:53:24.991Z,100094.53
2022-10-01T20:55:57.265Z,100094.03
2022-10-01T20:58:28.965Z,100105.09
2022-10-01T21:01:03.058Z,100118.44
2022-10-01T21:03:33.307Z,100126.34
2022-10-01T21:06:07.274Z,100122.72
2022-10-01T21:08:48.886Z,100134.44
2022-10-01T21:11:25.934Z,100142.34
2022-10-01T21:13:59.889Z,100128.81
2022-10-01T21:16:46.431Z,100124.84
2022-10-01T21:19:32.130Z,100138.06
2022-10-01T21:22:09.383Z,100149.44
2022-10-01T21:24:51.622Z,100138.09
2022-10-01T21:27:34.882Z,100177.47
2022-10-01T21:30:08.926Z,100211.09
2022-10-01T21:33:09.805Z,100243.28
2022-10-01T21:35:47.980Z,100295.59
2022-10-01T21:38:28.309Z,100364.56
2022-10-01T21:41:09.257Z,100355.19
2022-10-01T21:43:50.805Z,100376.13
2022-10-01T21:46:25.914Z,100373.28
2022-10-01T21:49:00.981Z,100276.91
2022-10-01T21:51:47.876Z,100317.88
2022-10-01T21:54:45.759Z,100321.72
2022-10-01T21:57:29.015Z,100320.44
2022-10-01T22:00:11.131Z,100313.81
2022-10-01T22:02:51.990Z,100301.00
2022-10-01T22:05:29.743Z,100303.91
2022-10-01T22:08:14.644Z,100280.00
2022-10-01T22:10:45.373Z,100265.22
2022-10-01T22:13:17.501Z,100241.50
2022-10-01T22:15:48.239Z,100225.69
2022-10-01T22:18:22.653Z,100239.63
2022-10-01T22:20:53.909Z,100257.34
2022-10-01T22:23:21.813Z,100273.78
2022-10-01T22:25:57.173Z,100260.97
2022-10-01T22:28:29.813Z,100215.75
2022-10-01T22:31:03.212Z,100152.88
2022-10-01T22:33:36.290Z,100164.47
2022-10-01T22:36:12.598Z,100209.41
2022-10-01T22:38:46.978Z,100191.03
2022-10-01T22:41:21.169Z,100162.94
2022-10-01T22:43:49.086Z,100133.47
2022-10-01T22:46:46.369Z,100103.34
2022-10-01T22:49:25.167Z,100115.38
2022-10-01T22:52:10.377Z,100147.63
2022-10-01T22:54:47.439Z,100144.31
2022-10-01T22:57:30.527Z,100141.69
2022-10-01T23:00:04.625Z,100148.97
2022-10-01T23:02:39.663Z,100144.03
2022-10-01T23:05:18.708Z,100145.03
2022-10-01T23:07:57.585Z,100143.06
2022-10-01T23:10:32.147Z,100143.06
2022-10-01T23:13:12.311Z,100138.69
2022-10-01T23:15:47.833Z,100148.72
2022-10-01T23:18:27.924Z,100150.38
2022-10-01T23:21:11.087Z,100116.13
2022-10-01T23:23:43.143Z,100042.63
2022-10-01T23:26:30.525Z,100061.03
2022-10-01T23:29:24.119Z,100137.91
2022-10-01T23:32:01.418Z,100151.09
2022-10-01T23:34:42.467Z,100147.63
2022-10-01T23:37:26.768Z,100158.50
2022-10-01T23:40:01.457Z,100173.78
2022-10-01T23:42:36.785Z,100162.03
2022-10-01T23:45:21.342Z,100144.47
2022-10-01T23:47:58.506Z,100122.53
2022-10-01T23:50:32.817Z,100115.81
2022-10-01T23:53:14.614Z,100099.34
2022-10-01T23:56:25.556Z,100091.97
2022-10-01T23:58:58.273Z,100096.28
